createdAt,value
2023-06-04T00:00:35.535Z,5.87
2023-06-04T00:03:07.763Z,6.27
2023-06-04T00:05:39.834Z,6.60
2023-06-04T00:08:11.953Z,5.80
2023-06-04T00:10:44.029Z,6.30
2023-06-04T00:13:16.533Z,6.10
2023-06-04T00:15:49.214Z,5.30
2023-06-04T00:18:21.762Z,6.33
2023-06-04T00:20:53.950Z,6.30
2023-06-04T00:23:26.286Z,6.20
2023-06-04T00:25:58.529Z,6.70
2023-06-04T00:28:30.913Z,5.63
2023-06-04T00:31:07.406Z,5.67
2023-06-04T00:33:43.103Z,5.77
2023-06-04T00:36:15.386Z,5.90
2023-06-04T00:38:47.783Z,6.15
2023-06-04T00:41:19.852Z,6.43
2023-06-04T00:43:58.096Z,5.40
2023-06-04T00:46:34.715Z,5.90
2023-06-04T00:49:07.761Z,5.40
2023-06-04T00:51:39.869Z,5.65
2023-06-04T00:54:14.264Z,5.00
2023-06-04T00:56:49.494Z,5.97
2023-06-04T00:59:21.689Z,5.43
2023-06-04T01:01:53.758Z,5.68
2023-06-04T01:04:42.862Z,5.35
2023-06-04T01:07:22.878Z,5.50
2023-06-04T01:09:57.824Z,6.32
2023-06-04T01:12:30.660Z,5.40
2023-06-04T01:15:02.783Z,5.32
2023-06-04T01:17:43.092Z,5.90
2023-06-04T01:20:40.195Z,4.95
2023-06-04T01:23:13.905Z,6.20
2023-06-04T01:25:55.334Z,5.25
2023-06-04T01:28:31.132Z,5.25
2023-06-04T01:31:08.899Z,5.43
2023-06-04T01:33:42.001Z,5.28
2023-06-04T01:36:14.122Z,4.78
2023-06-04T01:38:48.006Z,5.65
2023-06-04T01:41:20.128Z,4.80
2023-06-04T01:43:52.233Z,5.72
2023-06-04T01:46:24.459Z,4.97
2023-06-04T01:48:56.672Z,5.47
2023-06-04T01:51:29.098Z,4.90
2023-06-04T01:54:01.446Z,5.53
2023-06-04T01:56:33.527Z,4.97
2023-06-04T01:59:05.581Z,5.60
2023-06-04T02:01:37.838Z,5.38
2023-06-04T02:04:10.095Z,5.03
2023-06-04T02:06:42.176Z,4.28
2023-06-04T02:09:14.908Z,4.45
2023-06-04T02:11:46.964Z,5.22
2023-06-04T02:14:19.120Z,4.93
2023-06-04T02:16:51.698Z,5.05
2023-06-04T02:19:29.715Z,4.53
2023-06-04T02:22:02.206Z,4.30
2023-06-04T02:24:34.509Z,4.43
2023-06-04T02:27:07.562Z,4.68
2023-06-04T02:29:41.024Z,5.25
2023-06-04T02:32:13.342Z,4.78
2023-06-04T02:34:45.744Z,4.95
2023-06-04T02:37:17.857Z,3.95
2023-06-04T02:39:50.048Z,4.38
2023-06-04T02:42:22.140Z,4.82
2023-06-04T02:44:54.253Z,4.22
2023-06-04T02:47:26.533Z,4.35
2023-06-04T02:49:59.144Z,4.05
2023-06-04T02:52:31.800Z,4.35
2023-06-04T02:55:06.534Z,4.45
2023-06-04T02:57:45.415Z,4.40
2023-06-04T03:00:18.419Z,3.95
2023-06-04T03:02:50.831Z,4.88
2023-06-04T03:05:25.626Z,5.60
2023-06-04T03:08:00.512Z,4.82
2023-06-04T03:10:33.247Z,4.88
2023-06-04T03:13:05.575Z,4.40
2023-06-04T03:15:40.188Z,5.25
2023-06-04T03:18:12.964Z,4.70
2023-06-04T03:20:45.024Z,3.97
2023-06-04T03:23:17.755Z,4.30
2023-06-04T03:25:50.096Z,4.10
2023-06-04T03:28:22.479Z,4.10
2023-06-04T03:30:54.558Z,4.30
2023-06-04T03:33:27.141Z,4.13
2023-06-04T03:36:00.047Z,4.28
2023-06-04T03:38:32.491Z,3.83
2023-06-04T03:41:04.865Z,4.22
2023-06-04T03:43:37.147Z,3.67
2023-06-04T03:46:09.259Z,3.90
2023-06-04T03:48:42.938Z,4.20
2023-06-04T03:51:14.970Z,4.57
2023-06-04T03:53:47.398Z,4.68
2023-06-04T03:56:19.653Z,3.90
2023-06-04T03:58:53.524Z,4.10
2023-06-04T04:01:26.284Z,4.00
2023-06-04T04:03:58.615Z,3.95
2023-06-04T04:06:30.990Z,4.50
2023-06-04T04:09:05.028Z,4.40
2023-06-04T04:11:38.039Z,4.22
2023-06-04T04:14:10.172Z,4.70
2023-06-04T04:16:42.262Z,3.95
2023-06-04T04:19:15.484Z,4.00
2023-06-04T04:21:49.525Z,4.05
2023-06-04T04:24:28.968Z,4.05
2023-06-04T04:27:04.725Z,3.90
2023-06-04T04:29:36.828Z,4.60
2023-06-04T04:32:12.521Z,5.10
2023-06-04T04:34:56.200Z,3.58
2023-06-04T04:37:29.218Z,4.13
2023-06-04T04:40:01.901Z,3.70
2023-06-04T04:42:37.864Z,3.65
2023-06-04T04:45:10.623Z,3.92
2023-06-04T04:47:42.726Z,4.03
2023-06-04T04:50:14.958Z,3.63
2023-06-04T04:52:47.315Z,3.88
2023-06-04T04:55:19.385Z,3.67
2023-06-04T04:57:51.507Z,3.75
2023-06-04T05:00:23.652Z,3.78
2023-06-04T05:02:56.037Z,4.13
2023-06-04T05:05:28.163Z,4.20
2023-06-04T05:08:00.196Z,4.28
2023-06-04T05:10:32.527Z,3.70
2023-06-04T05:13:06.152Z,4.10
2023-06-04T05:15:40.922Z,3.72
2023-06-04T05:18:14.504Z,3.75
2023-06-04T05:20:48.506Z,4.40
2023-06-04T05:23:21.128Z,3.72
2023-06-04T05:25:53.556Z,4.15
2023-06-04T05:28:26.457Z,5.15
2023-06-04T05:31:00.921Z,4.32
2023-06-04T05:33:33.002Z,4.53
2023-06-04T05:36:05.384Z,4.65
2023-06-04T05:38:37.482Z,3.63
2023-06-04T05:41:09.668Z,3.90
2023-06-04T05:43:41.805Z,4.70
2023-06-04T05:46:16.372Z,3.75
2023-06-04T05:48:48.615Z,3.65
2023-06-04T05:51:21.206Z,3.88
2023-06-04T05:53:53.471Z,4.55
2023-06-04T05:56:27.502Z,3.83
2023-06-04T05:58:59.585Z,3.67
2023-06-04T06:01:31.726Z,3.80
2023-06-04T06:04:04.079Z,3.50
2023-06-04T06:06:37.631Z,3.60
2023-06-04T06:09:10.075Z,3.40
2023-06-04T06:11:42.717Z,2.87
2023-06-04T06:14:14.870Z,3.10
2023-06-04T06:16:48.169Z,3.00
2023-06-04T06:19:20.825Z,2.50
2023-06-04T06:21:52.872Z,2.73
2023-06-04T06:24:25.018Z,2.60
2023-06-04T06:26:57.660Z,3.23
2023-06-04T06:29:29.761Z,3.20
2023-06-04T06:32:02.219Z,2.73
2023-06-04T06:34:34.896Z,2.50
2023-06-04T06:37:08.101Z,2.40
2023-06-04T06:39:40.275Z,2.20
2023-06-04T06:42:12.503Z,2.50
2023-06-04T06:44:46.139Z,2.50
2023-06-04T06:47:18.371Z,2.33
2023-06-04T06:49:50.806Z,2.17
2023-06-04T06:52:22.814Z,2.20
2023-06-04T06:54:55.036Z,2.80
2023-06-04T06:57:27.009Z,2.50
2023-06-04T07:00:00.717Z,2.50
2023-06-04T07:02:33.353Z,2.70
2023-06-04T07:05:05.941Z,2.70
2023-06-04T07:07:38.642Z,2.40
2023-06-04T07:10:11.467Z,2.63
2023-06-04T07:12:44.030Z,3.03
2023-06-04T07:15:16.287Z,2.50
2023-06-04T07:17:48.366Z,2.93
2023-06-04T07:20:20.486Z,2.70
2023-06-04T07:22:53.070Z,2.70
2023-06-04T07:25:26.759Z,2.80
2023-06-04T07:27:59.355Z,2.67
2023-06-04T07:30:35.048Z,2.87
2023-06-04T07:33:09.893Z,2.93
2023-06-04T07:35:42.074Z,2.60
2023-06-04T07:38:14.315Z,2.90
2023-06-04T07:40:47.204Z,2.80
2023-06-04T07:43:19.539Z,2.83
2023-06-04T07:45:51.669Z,2.90
2023-06-04T07:48:31.347Z,3.07
2023-06-04T07:51:05.588Z,2.83
2023-06-04T07:53:38.861Z,3.00
2023-06-04T07:56:11.104Z,2.77
2023-06-04T07:58:44.689Z,2.93
2023-06-04T08:01:17.294Z,2.90
2023-06-04T08:03:49.709Z,2.80
2023-06-04T08:06:25.467Z,2.53
2023-06-04T08:08:58.587Z,2.47
2023-06-04T08:11:30.854Z,2.43
2023-06-04T08:14:03.061Z,2.87
2023-06-04T08:16:35.167Z,2.60
2023-06-04T08:19:08.778Z,2.77
2023-06-04T08:21:41.757Z,2.60
2023-06-04T08:24:14.345Z,2.60
2023-06-04T08:26:46.873Z,2.67
2023-06-04T08:29:20.306Z,2.57
2023-06-04T08:31:52.961Z,2.50
2023-06-04T08:34:25.287Z,2.80
2023-06-04T08:36:58.164Z,2.63
2023-06-04T08:39:31.426Z,2.80
2023-06-04T08:42:11.082Z,3.33
2023-06-04T08:45:03.992Z,2.87
2023-06-04T08:47:45.903Z,2.80
2023-06-04T08:50:25.562Z,2.80
2023-06-04T08:52:58.051Z,2.30
2023-06-04T08:55:31.627Z,2.90
2023-06-04T08:58:08.698Z,2.87
2023-06-04T09:00:42.377Z,2.50
2023-06-04T09:03:16.507Z,2.40
2023-06-04T09:05:53.660Z,2.50
2023-06-04T09:08:28.463Z,2.30
2023-06-04T09:11:07.638Z,2.93
2023-06-04T09:13:47.728Z,2.87
2023-06-04T09:16:20.923Z,2.80
2023-06-04T09:18:54.388Z,2.90
2023-06-04T09:21:27.277Z,2.67
2023-06-04T09:23:59.810Z,2.60
2023-06-04T09:26:32.638Z,2.40
2023-06-04T09:29:07.305Z,2.70
2023-06-04T09:31:41.272Z,2.60
2023-06-04T09:34:16.790Z,2.60
2023-06-04T09:37:00.046Z,2.80
2023-06-04T09:39:32.727Z,2.50
2023-06-04T09:42:05.200Z,2.80
2023-06-04T09:44:46.908Z,2.97
2023-06-04T09:47:19.552Z,2.80
2023-06-04T09:49:53.825Z,3.10
2023-06-04T09:52:34.878Z,2.97
2023-06-04T09:55:21.434Z,2.60
2023-06-04T09:57:54.794Z,2.80
2023-06-04T10:00:29.421Z,2.93
2023-06-04T10:03:04.247Z,2.50
2023-06-04T10:05:37.914Z,3.40
2023-06-04T10:08:12.906Z,2.90
2023-06-04T10:10:53.401Z,3.57
2023-06-04T10:13:32.004Z,2.90
2023-06-04T10:16:24.861Z,3.00
2023-06-04T10:19:09.561Z,2.80
2023-06-04T10:21:43.868Z,2.90
2023-06-04T10:24:17.155Z,2.80
2023-06-04T10:26:50.843Z,2.93
2023-06-04T10:29:24.312Z,2.90
2023-06-04T10:31:57.636Z,3.30
2023-06-04T10:34:31.129Z,3.20
2023-06-04T10:37:04.907Z,3.00
2023-06-04T10:39:37.914Z,3.23
2023-06-04T10:42:10.414Z,3.50
2023-06-04T10:44:53.837Z,3.20
2023-06-04T10:47:35.272Z,3.07
2023-06-04T10:50:14.459Z,2.80
2023-06-04T10:52:59.681Z,3.20
2023-06-04T10:55:45.730Z,2.50
2023-06-04T10:58:21.932Z,2.80
2023-06-04T11:01:04.075Z,3.40
2023-06-04T11:03:38.136Z,3.27
2023-06-04T11:06:18.505Z,3.50
2023-06-04T11:08:51.239Z,3.30
2023-06-04T11:11:35.136Z,3.30
2023-06-04T11:14:12.140Z,3.33
2023-06-04T11:16:45.791Z,3.70
2023-06-04T11:19:20.790Z,3.20
2023-06-04T11:21:54.310Z,3.00
2023-06-04T11:24:27.652Z,4.20
2023-06-04T11:29:39.861Z,3.70
2023-06-04T11:32:25.966Z,3.50
2023-06-04T11:35:08.384Z,3.87
2023-06-04T11:37:41.832Z,3.80
2023-06-04T11:40:27.989Z,4.03
2023-06-04T11:43:00.704Z,4.37
2023-06-04T11:45:35.311Z,3.70
2023-06-04T11:48:13.410Z,3.40
2023-06-04T11:50:47.592Z,3.50
2023-06-04T11:53:21.004Z,3.90
2023-06-04T11:55:53.557Z,3.63
2023-06-04T11:58:26.341Z,3.50
2023-06-04T12:00:59.070Z,4.07
2023-06-04T12:03:39.434Z,3.63
2023-06-04T12:06:22.229Z,3.70
2023-06-04T12:08:56.783Z,3.77
2023-06-04T12:11:35.375Z,3.83
2023-06-04T12:14:11.062Z,3.20
2023-06-04T12:17:07.616Z,3.33
2023-06-04T12:19:52.276Z,3.50
2023-06-04T12:22:24.854Z,3.53
2023-06-04T12:25:00.367Z,4.00
2023-06-04T12:27:35.748Z,3.07
2023-06-04T12:30:18.542Z,3.73
2023-06-04T12:32:52.168Z,2.90
2023-06-04T12:35:25.003Z,3.00
2023-06-04T12:37:57.294Z,3.13
2023-06-04T12:40:29.561Z,2.73
2023-06-04T12:43:02.048Z,3.33
2023-06-04T12:45:34.306Z,3.57
2023-06-04T12:48:07.828Z,3.00
2023-06-04T12:50:40.943Z,3.37
2023-06-04T12:53:13.623Z,3.90
2023-06-04T12:55:45.985Z,3.23
2023-06-04T12:58:18.947Z,2.83
2023-06-04T13:00:51.981Z,3.43
2023-06-04T13:03:24.717Z,3.43
2023-06-04T13:05:58.331Z,3.13
2023-06-04T13:08:31.723Z,4.03
2023-06-04T13:11:06.910Z,3.37
2023-06-04T13:13:40.010Z,3.00
2023-06-04T13:16:12.309Z,3.10
2023-06-04T13:18:45.089Z,3.70
2023-06-04T13:21:17.415Z,3.17
2023-06-04T13:23:51.579Z,3.17
2023-06-04T13:26:23.943Z,3.40
2023-06-04T13:28:56.696Z,4.37
2023-06-04T13:31:29.290Z,3.23
2023-06-04T13:34:11.941Z,3.13
2023-06-04T13:36:56.861Z,3.10
2023-06-04T13:39:29.488Z,3.20
2023-06-04T13:42:02.264Z,3.13
2023-06-04T13:44:34.796Z,3.07
2023-06-04T13:47:07.686Z,3.60
2023-06-04T13:49:40.327Z,3.30
2023-06-04T13:52:12.807Z,3.30
2023-06-04T13:54:45.100Z,3.07
2023-06-04T13:57:17.741Z,3.07
2023-06-04T13:59:52.499Z,3.43
2023-06-04T14:02:26.230Z,3.30
2023-06-04T14:04:58.552Z,3.70
2023-06-04T14:07:30.941Z,3.97
2023-06-04T14:10:03.211Z,4.00
2023-06-04T14:12:36.353Z,3.50
2023-06-04T14:15:12.053Z,3.50
2023-06-04T14:17:46.314Z,2.80
2023-06-04T14:20:40.007Z,4.00
2023-06-04T14:23:20.990Z,3.60
2023-06-04T14:26:15.362Z,3.13
2023-06-04T14:28:52.925Z,3.07
2023-06-04T14:31:35.248Z,3.10
2023-06-04T14:34:21.873Z,2.90
2023-06-04T14:37:03.812Z,3.63
2023-06-04T14:39:37.535Z,2.90
2023-06-04T14:42:16.791Z,2.90
2023-06-04T14:44:50.893Z,3.00
2023-06-04T14:47:27.019Z,3.07
2023-06-04T14:50:01.509Z,2.90
2023-06-04T14:52:34.692Z,3.20
2023-06-04T14:55:07.393Z,2.83
2023-06-04T14:57:40.621Z,2.73
2023-06-04T15:00:14.674Z,3.47
2023-06-04T15:02:54.457Z,3.20
2023-06-04T15:05:27.709Z,2.93
2023-06-04T15:08:01.245Z,3.03
2023-06-04T15:10:35.241Z,3.00
2023-06-04T15:13:07.878Z,3.30
2023-06-04T15:15:43.153Z,3.10
2023-06-04T15:18:15.739Z,2.93
2023-06-04T15:20:48.343Z,3.30
2023-06-04T15:23:20.913Z,2.67
2023-06-04T15:25:53.111Z,2.40
2023-06-04T15:28:25.445Z,2.53
2023-06-04T15:30:58.659Z,2.90
2023-06-04T15:33:31.354Z,4.73
2023-06-04T15:36:04.891Z,3.23
2023-06-04T15:38:37.985Z,3.40
2023-06-04T15:41:10.299Z,3.70
2023-06-04T15:43:42.920Z,3.20
2023-06-04T15:46:15.788Z,3.30
2023-06-04T15:48:48.152Z,2.60
2023-06-04T15:51:20.577Z,2.57
2023-06-04T15:53:53.066Z,2.83
2023-06-04T15:56:25.561Z,2.57
2023-06-04T15:58:59.126Z,2.40
2023-06-04T16:01:32.284Z,2.50
2023-06-04T16:04:04.993Z,3.40
2023-06-04T16:06:38.411Z,3.73
2023-06-04T16:09:10.894Z,3.33
2023-06-04T16:11:43.036Z,3.47
2023-06-04T16:14:15.564Z,2.57
2023-06-04T16:16:48.115Z,2.67
2023-06-04T16:19:20.580Z,2.70
2023-06-04T16:21:53.088Z,2.27
2023-06-04T16:24:25.973Z,2.80
2023-06-04T16:26:58.292Z,2.50
2023-06-04T16:29:30.966Z,2.83
2023-06-04T16:32:03.366Z,2.97
2023-06-04T16:34:36.107Z,2.90
2023-06-04T16:37:08.334Z,2.60
2023-06-04T16:39:40.941Z,2.37
2023-06-04T16:42:14.393Z,2.33
2023-06-04T16:44:47.444Z,2.60
2023-06-04T16:47:21.276Z,2.87
2023-06-04T16:49:56.252Z,2.40
2023-06-04T16:52:32.534Z,3.00
2023-06-04T16:55:12.403Z,2.93
2023-06-04T16:57:46.761Z,3.33
2023-06-04T17:00:26.938Z,2.53
2023-06-04T17:03:00.453Z,2.97
2023-06-04T17:05:33.956Z,2.20
2023-06-04T17:08:06.910Z,2.50
2023-06-04T17:10:40.467Z,3.20
2023-06-04T17:13:13.278Z,2.90
2023-06-04T17:15:45.957Z,2.73
2023-06-04T17:18:19.040Z,2.90
2023-06-04T17:20:52.932Z,2.87
2023-06-04T17:23:30.349Z,2.90
2023-06-04T17:26:03.796Z,2.93
2023-06-04T17:28:37.933Z,3.00
2023-06-04T17:31:13.853Z,2.63
2023-06-04T17:34:02.455Z,2.90
2023-06-04T17:36:37.258Z,2.90
2023-06-04T17:39:12.365Z,2.50
2023-06-04T17:41:58.381Z,2.83
2023-06-04T17:44:37.641Z,2.83
2023-06-04T17:47:10.135Z,2.90
2023-06-04T17:49:42.710Z,2.40
2023-06-04T17:52:16.491Z,3.20
2023-06-04T17:54:52.260Z,2.70
2023-06-04T17:57:26.977Z,3.00
2023-06-04T18:00:22.134Z,2.90
2023-06-04T18:02:59.713Z,2.87
2023-06-04T18:05:34.940Z,2.93
2023-06-04T18:08:10.586Z,3.03
2023-06-04T18:10:44.453Z,2.47
2023-06-04T18:13:20.164Z,3.37
2023-06-04T18:15:53.869Z,2.50
2023-06-04T18:18:27.840Z,2.40
2023-06-04T18:21:00.556Z,2.87
2023-06-04T18:23:33.371Z,2.30
2023-06-04T18:26:07.470Z,2.43
2023-06-04T18:37:36.729Z,2.20
2023-06-04T18:40:13.621Z,2.63
2023-06-04T18:42:49.305Z,2.87
2023-06-04T18:45:24.956Z,2.50
2023-06-04T18:47:58.092Z,2.20
2023-06-04T18:50:32.032Z,2.50
2023-06-04T18:53:11.722Z,2.97
2023-06-04T18:55:51.366Z,2.53
2023-06-04T18:58:28.518Z,3.07
2023-06-04T19:01:01.906Z,2.40
2023-06-04T19:03:37.452Z,2.40
2023-06-04T19:06:11.168Z,2.43
2023-06-04T19:08:44.614Z,2.00
2023-06-04T19:11:23.354Z,2.30
2023-06-04T19:13:59.378Z,2.30
2023-06-04T19:16:35.745Z,2.70
2023-06-04T19:19:11.354Z,2.70
2023-06-04T19:21:56.663Z,2.23
2023-06-04T19:24:34.964Z,2.80
2023-06-04T19:27:09.792Z,2.53
2023-06-04T19:29:45.932Z,2.70
2023-06-04T19:32:27.462Z,2.70
2023-06-04T19:35:07.633Z,2.77
2023-06-04T19:37:42.829Z,2.30
2023-06-04T19:40:23.343Z,2.40
2023-06-04T19:42:56.757Z,2.60
2023-06-04T19:45:30.318Z,3.00
2023-06-04T19:48:03.629Z,2.53
2023-06-04T19:50:37.214Z,2.20
2023-06-04T19:53:10.289Z,2.60
2023-06-04T19:55:42.810Z,2.67
2023-06-04T19:58:16.412Z,2.80
2023-06-04T20:00:50.004Z,3.00
2023-06-04T20:03:23.262Z,2.00
2023-06-04T20:05:57.884Z,2.80
2023-06-04T20:08:31.907Z,2.33
2023-06-04T20:11:05.080Z,3.57
2023-06-04T20:13:38.446Z,3.10
2023-06-04T20:16:11.984Z,2.70
2023-06-04T20:18:45.188Z,2.47
2023-06-04T20:21:20.276Z,2.90
2023-06-04T20:23:53.749Z,2.53
2023-06-04T20:26:27.726Z,2.33
2023-06-04T20:29:00.748Z,2.83
2023-06-04T20:31:33.677Z,2.80
2023-06-04T20:34:06.738Z,2.70
2023-06-04T20:36:39.321Z,2.17
2023-06-04T20:39:12.555Z,2.90
2023-06-04T20:41:44.960Z,2.90
2023-06-04T20:44:19.374Z,2.33
2023-06-04T20:46:52.434Z,2.87
2023-06-04T20:49:25.484Z,2.30
2023-06-04T20:52:01.374Z,2.80
2023-06-04T20:54:33.947Z,3.23
2023-06-04T20:57:07.044Z,2.50
2023-06-04T20:59:39.680Z,2.80
2023-06-04T21:02:12.956Z,2.60
2023-06-04T21:04:46.069Z,2.87
2023-06-04T21:07:18.769Z,2.57
2023-06-04T21:09:51.128Z,2.57
2023-06-04T21:12:23.720Z,2.20
2023-06-04T21:14:56.546Z,2.60
2023-06-04T21:17:28.849Z,3.07
2023-06-04T21:20:01.746Z,2.80
2023-06-04T21:22:34.554Z,3.03
2023-06-04T21:25:07.577Z,3.30
2023-06-04T21:27:40.969Z,3.33
2023-06-04T21:30:13.354Z,2.87
2023-06-04T21:32:46.914Z,3.77
2023-06-04T21:35:19.755Z,3.23
2023-06-04T21:37:52.608Z,2.50
2023-06-04T21:40:25.491Z,3.40
2023-06-04T21:42:58.181Z,3.23
2023-06-04T21:45:31.230Z,2.83
2023-06-04T21:48:04.412Z,2.73
2023-06-04T21:50:37.260Z,2.97
2023-06-04T21:53:10.314Z,3.23
2023-06-04T21:55:43.326Z,2.60
2023-06-04T21:58:15.777Z,2.93
2023-06-04T22:00:50.728Z,2.50
2023-06-04T22:03:23.725Z,3.17
2023-06-04T22:05:56.666Z,2.60
2023-06-04T22:08:29.253Z,2.73
2023-06-04T22:11:01.844Z,2.80
2023-06-04T22:13:34.212Z,2.50
2023-06-04T22:16:07.583Z,2.73
2023-06-04T22:18:52.392Z,2.87
2023-06-04T22:21:26.671Z,3.17
2023-06-04T22:23:59.006Z,3.03
2023-06-04T22:26:37.847Z,2.73
2023-06-04T22:29:10.669Z,2.60
2023-06-04T22:31:43.366Z,2.67
2023-06-04T22:34:16.715Z,2.50
2023-06-04T22:36:49.031Z,2.67
2023-06-04T22:39:21.717Z,2.53
2023-06-04T22:41:54.159Z,2.60
2023-06-04T22:44:26.498Z,2.42
2023-06-04T22:46:59.628Z,2.55
2023-06-04T22:49:32.549Z,2.50
2023-06-04T22:52:05.024Z,2.40
2023-06-04T22:54:38.492Z,2.67
2023-06-04T22:57:10.762Z,2.75
2023-06-04T22:59:43.211Z,2.67
2023-06-04T23:02:15.477Z,2.42
2023-06-04T23:04:47.643Z,2.25
2023-06-04T23:07:19.738Z,2.58
2023-06-04T23:09:52.655Z,2.55
2023-06-04T23:12:24.871Z,2.72
2023-06-04T23:14:57.040Z,2.80
2023-06-04T23:17:29.188Z,2.83
2023-06-04T23:20:03.817Z,2.97
2023-06-04T23:22:36.647Z,2.83
2023-06-04T23:25:09.390Z,3.03
2023-06-04T23:27:41.581Z,2.40
2023-06-04T23:30:14.366Z,2.15
2023-06-04T23:32:47.639Z,2.50
2023-06-04T23:35:21.036Z,3.15
2023-06-04T23:37:53.603Z,3.20
2023-06-04T23:40:25.797Z,3.10
2023-06-04T23:42:58.020Z,2.80
2023-06-04T23:45:30.176Z,2.88
2023-06-04T23:48:02.331Z,3.42
2023-06-04T23:50:34.444Z,3.85
2023-06-04T23:53:06.529Z,3.03
2023-06-04T23:55:39.879Z,4.55
2023-06-04T23:58:12.081Z,3.10
